Time;durP1;ratioP1;P1;durP2;ratioP2;P2;SDS_P1;SDS_P2;PMS_P1;PMS_P2;Temp;Humidity;BMP_temperature;BMP_pressure;BME280_temperature;BME280_humidity;BME280_pressure;Samples;Min_cycle;Max_cycle;Signal;HPM_P1;HPM_P2
2022/02/13 00:01:51;;;;;;;7.47;3.35;;;-0.70;93.40;;;;;;4943660;29;19923;-80
2022/02/13 00:04:16;;;;;;;;;;;-0.70;93.60;;;;;;4959744;29;20087;-81
2022/02/13 00:06:42;;;;;;;15.00;5.38;;;-0.70;93.70;;;;;;4943630;29;19918;-81
2022/02/13 00:09:09;;;;;;;;;;;-0.70;93.90;;;;;;4959340;28;20023;-81
2022/02/13 00:11:36;;;;;;;17.90;7.10;;;-0.70;94.40;;;;;;4958631;29;19901;-80
2022/02/13 00:14:02;;;;;;;15.25;5.57;;;-0.70;94.30;;;;;;4959329;29;20019;-79
2022/02/13 00:16:27;;;;;;;;;;;-0.60;95.00;;;;;;4944551;29;20051;-81
2022/02/13 00:18:53;;;;;;;14.73;5.07;;;-0.70;94.60;;;;;;4959881;28;19923;-80
2022/02/13 00:21:19;;;;;;;;;;;-0.80;94.80;;;;;;4943484;29;20031;-81
2022/02/13 00:23:45;;;;;;;24.65;7.28;;;-0.80;95.00;;;;;;4942907;29;19915;-80
2022/02/13 00:26:11;;;;;;;;;;;-0.80;94.90;;;;;;4959409;29;20076;-82
2022/02/13 00:28:36;;;;;;;8.02;2.72;;;-0.80;95.40;;;;;;4959188;28;19915;-81
2022/02/13 00:31:03;;;;;;;;;;;-0.90;95.40;;;;;;4943986;29;20099;-81
2022/02/13 00:33:29;;;;;;;9.80;3.03;;;-1.00;95.50;;;;;;4959713;28;19919;-81
2022/02/13 00:35:54;;;;;;;;;;;-0.90;95.40;;;;;;4943799;29;20023;-81
2022/02/13 00:38:20;;;;;;;7.90;2.30;;;-0.80;96.10;;;;;;4959181;29;19895;-80
2022/02/13 00:40:46;;;;;;;;;;;-1.00;96.00;;;;;;4959667;28;20093;-82
2022/02/13 00:43:13;;;;;;;3.78;1.23;;;-1.00;96.80;;;;;;4959495;29;19914;-80
2022/02/13 00:45:39;;;;;;;7.05;1.55;;;-1.00;96.80;;;;;;4959052;28;20040;-80
2022/02/13 00:48:05;;;;;;;;;;;-1.10;96.80;;;;;;4959037;28;20024;-81
2022/02/13 00:50:31;;;;;;;5.25;1.50;;;-1.00;96.90;;;;;;4959331;29;19962;-80
2022/02/13 00:52:56;;;;;;;;;;;-1.00;96.80;;;;;;4942971;29;20019;-80
2022/02/13 00:55:22;;;;;;;20.77;6.10;;;-0.90;96.90;;;;;;4959828;28;19895;-81
2022/02/13 00:57:48;;;;;;;;;;;-1.00;97.00;;;;;;4959170;28;20046;-80
2022/02/13 01:00:14;;;;;;;11.77;3.75;;;-0.90;97.50;;;;;;4958955;28;19895;-80
2022/02/13 01:02:40;;;;;;;15.75;4.50;;;-0.90;97.30;;;;;;4958603;29;20023;-81
2022/02/13 01:05:06;;;;;;;;;;;-0.90;96.90;;;;;;4959169;29;20023;-81
2022/02/13 01:07:32;;;;;;;10.85;3.88;;;-0.80;97.70;;;;;;4958464;29;19970;-81
2022/02/13 01:09:58;;;;;;;;;;;-0.80;96.70;;;;;;4959612;28;20012;-81
2022/02/13 01:12:24;;;;;;;14.52;4.60;;;-0.80;96.60;;;;;;4945673;28;19914;-80
2022/02/13 01:14:50;;;;;;;;;;;-0.80;96.70;;;;;;4962042;28;20087;-80
2022/02/13 01:17:16;;;;;;;16.30;5.35;;;-0.90;96.70;;;;;;4946708;29;19891;-82
2022/02/13 01:19:41;;;;;;;;;;;-0.90;96.70;;;;;;4963984;29;20012;-80
2022/02/13 01:22:07;;;;;;;17.63;5.07;;;-1.00;97.00;;;;;;4963394;29;19905;-80
2022/02/13 01:24:34;;;;;;;18.70;5.55;;;-1.00;97.00;;;;;;4962558;29;20040;-82
2022/02/13 01:27:00;;;;;;;20.95;6.10;;;-1.00;97.60;;;;;;4945897;29;20036;-81
2022/02/13 01:29:26;;;;;;;20.50;7.32;;;-0.90;97.80;;;;;;4961290;29;20032;-80
2022/02/13 01:31:52;;;;;;;;;;;-1.10;98.00;;;;;;4945574;29;20036;-81
2022/02/13 01:34:18;;;;;;;17.13;5.30;;;-1.00;98.00;;;;;;4961242;29;19895;-80
2022/02/13 01:36:45;;;;;;;;;;;-1.10;98.20;;;;;;4962419;29;20012;-81
2022/02/13 01:39:11;;;;;;;12.73;2.80;;;-1.10;98.00;;;;;;4945119;29;19910;-80
2022/02/13 01:41:38;;;;;;;5.88;1.65;;;-1.10;97.90;;;;;;4961097;29;20031;-80
2022/02/13 01:44:04;;;;;;;10.70;2.97;;;-1.10;98.00;;;;;;4963119;29;20024;-79
2022/02/13 01:46:30;;;;;;;11.32;3.17;;;-1.00;98.20;;;;;;4961974;29;20047;-83
2022/02/13 01:48:56;;;;;;;7.57;2.05;;;-1.00;97.60;;;;;;4960902;29;20038;-80
2022/02/13 01:51:24;;;;;;;18.83;5.63;;;-1.00;97.30;;;;;;4944824;29;20047;-82
2022/02/13 01:53:50;;;;;;;30.92;8.77;;;-0.90;97.20;;;;;;4961224;29;20019;-80
2022/02/13 01:56:16;;;;;;;;;;;-0.90;97.10;;;;;;4961022;29;20432;-81
2022/02/13 01:58:42;;;;;;;48.67;15.63;;;-1.00;98.10;;;;;;4961523;29;19915;-81
2022/02/13 02:01:09;;;;;;;57.00;16.30;;;-1.10;98.10;;;;;;4943652;29;20099;-80
2022/02/13 02:03:36;;;;;;;41.63;13.98;;;-1.30;98.70;;;;;;4945649;29;20030;-80
2022/02/13 02:06:02;;;;;;;43.45;15.35;;;-1.40;99.60;;;;;;4960945;29;20033;-80
2022/02/13 02:08:27;;;;;;;;;;;-1.50;99.90;;;;;;4960635;29;20015;-80
2022/02/13 02:10:54;;;;;;;31.00;9.68;;;-1.60;99.90;;;;;;4961590;29;19941;-81
2022/02/13 02:13:20;;;;;;;40.97;11.75;;;-1.70;99.90;;;;;;4944407;29;20048;-82
2022/02/13 02:15:46;;;;;;;;;;;-1.70;99.90;;;;;;4961015;29;20050;-81
2022/02/13 02:18:12;;;;;;;21.27;7.50;;;-1.70;99.90;;;;;;4944772;29;19914;-81
2022/02/13 02:20:38;;;;;;;;;;;-1.80;99.90;;;;;;4943967;29;20067;-81
2022/02/13 02:23:04;;;;;;;28.25;8.23;;;-1.70;99.90;;;;;;4959761;29;19903;-80
2022/02/13 02:25:30;;;;;;;58.90;19.20;;;-1.80;99.90;;;;;;4959971;29;20032;-80
2022/02/13 02:27:56;;;;;;;;;;;-1.80;99.90;;;;;;4960757;29;20035;-79
2022/02/13 02:30:22;;;;;;;16.33;4.75;;;-1.80;99.90;;;;;;4958805;29;19891;-80
2022/02/13 02:32:47;;;;;;;;;;;-1.80;99.90;;;;;;4960016;29;20027;-80
2022/02/13 02:35:13;;;;;;;13.57;4.57;;;-1.80;99.90;;;;;;4959706;29;19897;-81
2022/02/13 02:37:39;;;;;;;;;;;-1.80;99.90;;;;;;4942952;29;20066;-81
2022/02/13 02:40:06;;;;;;;13.30;5.07;;;-1.90;99.90;;;;;;4941629;29;19891;-81
2022/02/13 02:42:32;;;;;;;13.80;5.00;;;-1.80;99.90;;;;;;4959580;29;20030;-80
2022/02/13 02:44:58;;;;;;;;;;;-1.90;99.90;;;;;;4943526;29;20095;-81
2022/02/13 03:02:49;;;;;;;13.30;4.47;;;-2.20;99.90;;;;;;5038185;23;20059;-81
2022/02/13 03:05:14;;;;;;;;;;;-2.20;99.90;;;;;;4959618;29;20064;-79
2022/02/13 03:07:40;;;;;;;13.50;4.60;;;-2.20;99.90;;;;;;4943640;29;19911;-82
2022/02/13 03:10:06;;;;;;;;;;;-2.30;99.90;;;;;;4944947;29;20083;-81
2022/02/13 03:12:32;;;;;;;12.38;4.22;;;-2.30;99.90;;;;;;4945419;29;19918;-79
2022/02/13 03:14:58;;;;;;;;;;;-2.30;99.90;;;;;;4960310;29;20011;-81
2022/02/13 03:17:24;;;;;;;16.50;5.00;;;-2.40;99.90;;;;;;4943002;29;19914;-80
2022/02/13 03:19:49;;;;;;;;;;;-2.50;99.90;;;;;;4959518;29;20035;-79
2022/02/13 03:22:15;;;;;;;13.68;5.03;;;-2.40;99.90;;;;;;4943517;29;19918;-82
2022/02/13 03:24:41;;;;;;;;;;;-2.40;99.90;;;;;;4944239;29;20016;-81
2022/02/13 03:27:07;;;;;;;12.30;4.57;;;-2.60;99.90;;;;;;4943953;29;19895;-81
2022/02/13 03:29:33;;;;;;;;;;;-2.50;99.90;;;;;;4959144;29;20079;-81
2022/02/13 03:31:58;;;;;;;16.00;6.93;;;-2.50;99.90;;;;;;4944002;29;20002;-81
2022/02/13 03:34:24;;;;;;;;;;;-2.40;99.90;;;;;;4943591;29;20060;-82
2022/02/13 03:36:51;;;;;;;27.70;8.70;;;-2.50;99.90;;;;;;4944524;29;19902;-81
2022/02/13 03:39:17;;;;;;;18.40;6.60;;;-2.60;99.90;;;;;;4959741;29;20051;-81
2022/02/13 03:41:43;;;;;;;;;;;-2.70;99.90;;;;;;4960547;29;20027;-82
2022/02/13 03:44:09;;;;;;;17.65;6.03;;;-2.70;99.90;;;;;;4959674;29;19926;-82
2022/02/13 03:46:35;;;;;;;21.70;7.15;;;-2.80;99.90;;;;;;4956959;28;20012;-82
2022/02/13 03:49:01;;;;;;;;;;;-2.80;99.90;;;;;;4942324;29;20039;-81
2022/02/13 03:51:27;;;;;;;15.45;5.00;;;-2.80;99.90;;;;;;4941401;29;19911;-81
2022/02/13 03:53:52;;;;;;;;;;;-2.90;99.90;;;;;;4941491;29;20013;-81
2022/02/13 03:56:18;;;;;;;11.68;4.25;;;-2.80;99.90;;;;;;4925676;29;19895;-81
2022/02/13 03:58:44;;;;;;;;;;;-2.80;99.90;;;;;;4942527;29;20036;-81
2022/02/13 04:01:10;;;;;;;10.10;4.40;;;-2.90;99.90;;;;;;4938661;29;19925;-81
2022/02/13 04:03:36;;;;;;;;;;;-2.80;99.90;;;;;;4922507;29;20017;-82
2022/02/13 04:06:03;;;;;;;16.25;6.38;;;-2.90;99.90;;;;;;4905660;29;19895;-81
2022/02/13 04:08:29;;;;;;;16.30;6.75;;;-2.90;99.90;;;;;;4906171;29;20028;-81
2022/02/13 04:10:56;;;;;;;15.70;6.20;;;-2.90;99.90;;;;;;4921650;29;20033;-81
2022/02/13 04:13:22;;;;;;;17.45;6.22;;;-2.80;99.90;;;;;;4922010;29;20017;-81
2022/02/13 04:15:47;;;;;;;;;;;-2.90;99.90;;;;;;4905617;29;20013;-80
2022/02/13 04:18:15;;;;;;;6.75;3.00;;;-2.80;99.90;;;;;;4921149;29;19896;-81
2022/02/13 04:20:42;;;;;;;7.10;3.15;;;-2.70;99.90;;;;;;4921471;29;20068;-80
2022/02/13 04:23:08;;;;;;;6.22;2.55;;;-2.60;99.90;;;;;;4921395;29;20040;-80
2022/02/13 04:25:35;;;;;;;7.88;3.53;;;-2.40;99.90;;;;;;4921878;29;20028;-81
2022/02/13 04:28:01;;;;;;;7.78;3.30;;;-2.30;99.90;;;;;;4921267;29;20123;-81
2022/02/13 04:30:28;;;;;;;6.90;2.83;;;-2.10;99.90;;;;;;4921931;29;20028;-81
2022/02/13 04:32:56;;;;;;;6.38;2.10;;;-2.20;99.90;;;;;;4904815;29;20029;-80
2022/02/13 04:35:23;;;;;;;6.93;1.92;;;-2.20;99.90;;;;;;4921115;29;20066;-80
2022/02/13 04:37:53;;;;;;;5.18;2.20;;;-2.20;99.90;;;;;;4921361;29;20032;-81
2022/02/13 04:40:19;;;;;;;6.07;1.73;;;-2.30;99.90;;;;;;4922149;29;20048;-82
2022/02/13 04:42:46;;;;;;;5.53;2.45;;;-2.30;99.90;;;;;;4922579;29;20025;-80
2022/02/13 04:45:12;;;;;;;6.63;1.90;;;-2.40;99.90;;;;;;4923492;29;20049;-81
2022/02/13 05:35:20;;;;;;;12.82;3.97;;;-3.30;99.90;;;;;;4883848;29;20093;-80
2022/02/13 05:37:50;;;;;;;14.27;4.00;;;-3.20;99.90;;;;;;4882454;29;20060;-80
2022/02/13 05:40:16;;;;;;;10.75;3.70;;;-3.10;99.90;;;;;;4884918;29;20037;-79
2022/02/13 05:42:42;;;;;;;9.48;3.42;;;-2.90;99.90;;;;;;4881885;29;20029;-81
2022/02/13 05:45:08;;;;;;;;;;;-3.00;99.90;;;;;;4883338;29;20098;-80
2022/02/13 05:47:35;;;;;;;5.95;2.10;;;-2.90;99.90;;;;;;4881737;29;19915;-80
2022/02/13 05:50:01;;;;;;;5.07;1.92;;;-2.90;99.90;;;;;;4882417;29;20020;-80
2022/02/13 05:52:27;;;;;;;;;;;-2.50;99.90;;;;;;4887145;29;20013;-81
2022/02/13 05:54:53;;;;;;;;;;;-2.50;99.90;;;;;;4885419;29;19940;-81
2022/02/13 05:57:18;;;;;;;;;;;-2.50;99.90;;;;;;4885685;29;19912;-79
2022/02/13 05:59:44;;;;;;;;;;;-2.50;99.90;;;;;;4886453;29;19897;-82
2022/02/13 06:02:10;;;;;;;;;;;-2.60;99.90;;;;;;4886461;29;19964;-81
2022/02/13 06:04:35;;;;;;;;;;;-2.70;99.90;;;;;;4886382;29;19900;-81
2022/02/13 06:07:01;;;;;;;;;;;-2.60;99.90;;;;;;4886059;29;19904;-81
2022/02/13 06:09:27;;;;;;;;;;;-2.50;99.90;;;;;;4881897;29;20412;-79
2022/02/13 06:11:52;;;;;;;;;;;-2.50;99.90;;;;;;4875751;29;19908;-79
2022/02/13 06:14:19;;;;;;;;;;;-2.50;99.90;;;;;;4865376;29;20433;-78
2022/02/13 06:16:45;;;;;;;;;;;-2.40;99.90;;;;;;4867456;29;20411;-80
2022/02/13 06:19:10;;;;;;;;;;;-2.50;99.90;;;;;;4869569;29;19946;-79
2022/02/13 06:21:36;;;;;;;;;;;-2.40;99.90;;;;;;4874322;29;20405;-80
2022/02/13 06:24:03;;;;;;;;;;;-2.50;99.90;;;;;;4882245;29;19912;-81
2022/02/13 06:26:31;;;;;;;;;;;-2.40;99.90;;;;;;4884861;29;19921;-80
2022/02/13 06:28:56;;;;;;;;;;;-2.50;99.90;;;;;;4885066;29;19900;-81
2022/02/13 06:31:22;;;;;;;;;;;-2.20;99.90;;;;;;4884484;29;19945;-82
2022/02/13 06:33:48;;;;;;;;;;;-2.20;99.90;;;;;;4886541;29;19994;-81
2022/02/13 06:36:14;;;;;;;;;;;-2.20;99.90;;;;;;4886642;29;19908;-81
2022/02/13 06:38:39;;;;;;;;;;;-2.00;99.90;;;;;;4885136;29;19908;-81
2022/02/13 06:41:05;;;;;;;;;;;-1.80;99.90;;;;;;4884246;29;19912;-81
2022/02/13 10:32:55;;;;;;;;;;;8.10;46.20;;;;;;5322946;23;19990;-79
2022/02/13 10:35:24;;;;;;;;;;;8.10;47.00;;;;;;4944673;29;19961;-80
2022/02/13 10:37:58;;;;;;;;;;;7.80;47.70;;;;;;4945267;29;19895;-79
2022/02/13 10:50:46;;;;;;;;;;;7.60;50.10;;;;;;5343624;23;19907;-79
2022/02/13 10:53:11;;;;;;;;;;;7.50;51.00;;;;;;4962182;28;19974;-80
2022/02/13 10:55:38;;;;;;;;;;;7.60;51.50;;;;;;4961595;29;19895;-79
2022/02/13 10:58:04;;;;;;;;;;;7.70;51.40;;;;;;4961397;29;19917;-78
2022/02/13 11:00:31;;;;;;;;;;;7.70;51.70;;;;;;4961249;29;19895;-79
2022/02/13 11:03:04;;;;;;;;;;;7.80;52.00;;;;;;4961185;29;20012;-79
2022/02/13 11:05:30;;;;;;;;;;;7.80;52.10;;;;;;4959785;29;19950;-79
2022/02/13 11:08:01;;;;;;;;;;;7.90;52.10;;;;;;4959285;29;19907;-78
2022/02/13 11:10:30;;;;;;;;;;;7.90;52.20;;;;;;4953512;29;19910;-79
2022/02/13 11:12:55;;;;;;;;;;;7.90;52.30;;;;;;4961560;29;19899;-80
2022/02/13 11:15:28;;;;;;;;;;;7.90;52.60;;;;;;4961563;29;19956;-81
2022/02/13 11:17:57;;;;;;;;;;;7.90;52.80;;;;;;4944413;29;19934;-80
2022/02/13 11:20:25;;;;;;;;;;;7.90;53.20;;;;;;4960839;29;19907;-79
2022/02/13 11:22:53;;;;;;;;;;;7.70;53.00;;;;;;4960282;29;19907;-81
2022/02/13 11:25:37;;;;;;;;;;;7.80;53.50;;;;;;4944023;29;19917;-80
2022/02/13 11:28:03;;;;;;;;;;;7.70;53.80;;;;;;4959916;29;19958;-80
2022/02/13 11:30:38;;;;;;;;;;;7.50;54.60;;;;;;4959855;29;19901;-80
2022/02/13 11:33:04;;;;;;;;;;;7.50;55.30;;;;;;4956899;29;19891;-79
2022/02/13 11:36:05;;;;;;;;;;;7.60;55.20;;;;;;4956591;29;19907;-79
2022/02/13 11:38:46;;;;;;;;;;;7.60;55.10;;;;;;4861728;29;19904;-79
2022/02/13 11:41:15;;;;;;;;;;;7.50;55.10;;;;;;4946414;29;19978;-78
2022/02/13 11:43:49;;;;;;;;;;;7.50;55.40;;;;;;4957310;29;19911;-76
2022/02/13 11:46:27;;;;;;;;;;;7.40;56.80;;;;;;4953107;29;19950;-78
2022/02/13 11:48:57;;;;;;;;;;;7.50;56.80;;;;;;4954614;29;19934;-78
2022/02/13 11:51:42;;;;;;;;;;;7.50;56.70;;;;;;4953097;29;19930;-78
2022/02/13 11:54:08;;;;;;;;;;;7.50;56.80;;;;;;4936026;29;19929;-79
2022/02/13 11:56:33;;;;;;;;;;;7.50;56.90;;;;;;4953619;29;19941;-77
2022/02/13 11:58:59;;;;;;;;;;;7.50;57.00;;;;;;4934999;29;20041;-78
2022/02/13 12:01:37;;;;;;;;;;;7.50;57.10;;;;;;4954529;29;19915;-78
2022/02/13 12:04:03;;;;;;;;;;;7.50;57.80;;;;;;4954445;29;19906;-78
2022/02/13 12:06:29;;;;;;;;;;;7.40;57.30;;;;;;4955524;29;19911;-79
2022/02/13 12:08:57;;;;;;;;;;;7.40;57.50;;;;;;4957848;29;19891;-78
2022/02/13 12:11:28;;;;;;;;;;;7.30;58.10;;;;;;4939891;29;19915;-79
2022/02/13 12:13:53;;;;;;;;;;;7.20;58.40;;;;;;4939359;29;19913;-78
2022/02/13 12:16:23;;;;;;;;;;;7.30;58.50;;;;;;4955747;29;19938;-80
2022/02/13 12:18:52;;;;;;;;;;;7.40;58.80;;;;;;4944258;29;19903;-79
2022/02/13 12:21:24;;;;;;;;;;;7.40;58.90;;;;;;4943067;29;19946;-80
2022/02/13 12:23:58;;;;;;;;;;;7.50;58.80;;;;;;4956831;29;19915;-79
2022/02/13 12:26:24;;;;;;;;;;;7.40;58.40;;;;;;4945146;29;19894;-79
2022/02/13 12:28:50;;;;;;;;;;;7.30;57.60;;;;;;4961637;29;19902;-80
2022/02/13 12:31:21;;;;;;;;;;;7.30;58.60;;;;;;4961119;29;19911;-79
2022/02/13 12:33:51;;;;;;;;;;;7.30;58.80;;;;;;4945224;29;19919;-79
2022/02/13 12:36:31;;;;;;;;;;;7.30;58.90;;;;;;4960985;29;19902;-80
2022/02/13 12:38:59;;;;;;;;;;;7.30;59.00;;;;;;4944394;29;19911;-80
2022/02/13 12:41:25;;;;;;;;;;;7.30;58.40;;;;;;4945033;29;19958;-81
2022/02/13 12:43:53;;;;;;;;;;;7.20;59.00;;;;;;4958232;29;19923;-80
2022/02/13 12:46:22;;;;;;;;;;;7.20;59.30;;;;;;4942888;29;19918;-79
2022/02/13 12:48:48;;;;;;;;;;;7.30;59.90;;;;;;4940897;29;19895;-78
2022/02/13 12:51:24;;;;;;;;;;;7.30;59.70;;;;;;4954224;29;19930;-79
2022/02/13 12:53:50;;;;;;;;;;;7.40;59.50;;;;;;4952363;29;19921;-79
2022/02/13 12:56:16;;;;;;;;;;;7.50;59.40;;;;;;4949815;29;19942;-79
2022/02/13 12:58:42;;;;;;;;;;;7.60;58.80;;;;;;4935930;29;19918;-79
2022/02/13 13:01:13;;;;;;;;;;;7.50;58.90;;;;;;4935090;29;19906;-78
2022/02/13 13:03:39;;;;;;;;;;;7.60;58.20;;;;;;4953078;29;19918;-79
2022/02/13 13:06:05;;;;;;;;;;;7.60;58.30;;;;;;4955100;29;19950;-79
2022/02/13 13:08:42;;;;;;;;;;;7.60;59.00;;;;;;4962883;28;19895;-79
2022/02/13 13:11:08;;;;;;;;;;;7.60;58.70;;;;;;4955629;29;19921;-79
2022/02/13 13:13:35;;;;;;;;;;;7.60;58.70;;;;;;4962422;29;19911;-79
2022/02/13 13:16:04;;;;;;;;;;;7.70;58.60;;;;;;4946220;29;20360;-77
2022/02/13 13:18:34;;;;;;;;;;;7.70;58.30;;;;;;4963766;29;19895;-79
2022/02/13 13:21:11;;;;;;;;;;;7.90;58.10;;;;;;4963695;29;19895;-79
2022/02/13 13:23:36;;;;;;;;;;;7.90;58.00;;;;;;4963985;29;19907;-79
2022/02/13 13:26:12;;;;;;;;;;;7.90;57.80;;;;;;4963713;29;19895;-80
2022/02/13 13:28:40;;;;;;;;;;;7.90;57.80;;;;;;4946971;29;19918;-80
2022/02/13 13:31:06;;;;;;;;;;;8.00;57.60;;;;;;4962757;29;19895;-77
2022/02/13 13:33:32;;;;;;;;;;;8.00;57.20;;;;;;4944227;29;19914;-79
2022/02/13 13:35:58;;;;;;;;;;;8.00;57.30;;;;;;4943607;29;19915;-79
2022/02/13 13:41:01;;;;;;;;;;;7.90;57.80;;;;;;5498469;23;19958;-79
2022/02/13 13:43:26;;;;;;;;;;;8.00;58.10;;;;;;4945112;29;19943;-79
2022/02/13 13:45:52;;;;;;;;;;;7.90;57.90;;;;;;4961031;29;19907;-79
2022/02/13 13:48:18;;;;;;;;;;;8.00;57.80;;;;;;4945906;29;19907;-80
2022/02/13 13:50:46;;;;;;;;;;;7.90;57.70;;;;;;4960169;28;19935;-78
2022/02/13 13:53:14;;;;;;;;;;;7.80;58.20;;;;;;4960949;29;19895;-78
2022/02/13 13:55:43;;;;;;;;;;;7.80;58.90;;;;;;4962014;29;19918;-79
2022/02/13 13:58:09;;;;;;;;;;;7.70;58.80;;;;;;4946012;29;19918;-79
2022/02/13 14:00:35;;;;;;;;;;;7.60;59.10;;;;;;4944459;29;19894;-79
2022/02/13 14:03:01;;;;;;;;;;;7.70;59.10;;;;;;4961830;29;19919;-80
2022/02/13 14:05:28;;;;;;;;;;;7.70;59.40;;;;;;4961520;29;19902;-79
2022/02/13 14:07:57;;;;;;;;;;;7.60;59.80;;;;;;4962542;29;19918;-80
2022/02/13 14:10:24;;;;;;;;;;;7.50;60.10;;;;;;4943610;29;19911;-79
2022/02/13 14:12:50;;;;;;;;;;;7.50;60.60;;;;;;4961945;29;19930;-78
2022/02/13 14:15:17;;;;;;;;;;;7.40;60.90;;;;;;4958376;29;19917;-78
2022/02/13 14:17:43;;;;;;;;;;;7.30;61.20;;;;;;4956747;29;20001;-78
2022/02/13 14:20:09;;;;;;;;;;;7.30;61.60;;;;;;4942030;29;19917;-79
2022/02/13 14:22:35;;;;;;;;;;;7.20;62.40;;;;;;4958891;29;19911;-79
2022/02/13 14:25:01;;;;;;;;;;;7.20;62.50;;;;;;4956687;29;20196;-78
2022/02/13 14:27:26;;;;;;;;;;;7.20;62.70;;;;;;4955233;29;19910;-77
2022/02/13 14:29:52;;;;;;;;;;;7.10;63.20;;;;;;4958712;29;19910;-79
2022/02/13 14:32:18;;;;;;;;;;;7.00;63.90;;;;;;4960345;29;19934;-79
2022/02/13 14:34:44;;;;;;;;;;;6.90;65.00;;;;;;4960119;29;19895;-79
2022/02/13 14:37:10;;;;;;;;;;;6.90;65.00;;;;;;4957148;29;19938;-79
2022/02/13 14:39:36;;;;;;;;;;;6.90;64.90;;;;;;4941527;29;19903;-79
2022/02/13 14:42:02;;;;;;;;;;;6.80;65.20;;;;;;4925222;29;19907;-79
2022/02/13 14:44:28;;;;;;;;;;;6.80;65.80;;;;;;4926071;29;19903;-79
2022/02/13 14:46:54;;;;;;;;;;;6.90;65.90;;;;;;4941891;29;19895;-79
2022/02/13 14:49:20;;;;;;;;;;;6.90;66.30;;;;;;4925488;29;19959;-79
2022/02/13 14:51:46;;;;;;;;;;;6.90;66.00;;;;;;4941097;29;19896;-79
2022/02/13 14:54:11;;;;;;;;;;;6.80;66.40;;;;;;4940636;29;19950;-77
2022/02/13 14:56:37;;;;;;;;;;;6.80;66.70;;;;;;4957562;29;19919;-79
2022/02/13 14:59:03;;;;;;;;;;;6.90;66.70;;;;;;4957305;28;19949;-79
2022/02/13 15:01:29;;;;;;;;;;;6.70;67.20;;;;;;4957000;29;19919;-79
2022/02/13 15:03:55;;;;;;;;;;;6.80;67.40;;;;;;4941591;29;19895;-79
2022/02/13 15:06:20;;;;;;;;;;;6.70;67.30;;;;;;4915067;29;19920;-79
2022/02/13 15:08:46;;;;;;;;;;;6.70;68.00;;;;;;4920138;29;19896;-79
2022/02/13 15:11:12;;;;;;;;;;;6.70;68.40;;;;;;4916178;29;19908;-77
2022/02/13 15:13:38;;;;;;;;;;;6.70;68.20;;;;;;4901440;29;19915;-78
2022/02/13 15:16:04;;;;;;;;;;;6.70;68.10;;;;;;4904161;29;20411;-79
2022/02/13 15:18:30;;;;;;;;;;;6.70;68.20;;;;;;4935888;29;19896;-80
2022/02/13 15:20:56;;;;;;;;;;;6.70;68.60;;;;;;4905906;29;19931;-79
2022/02/13 15:23:22;;;;;;;;;;;6.80;69.20;;;;;;4910653;29;19951;-79
2022/02/13 15:25:49;;;;;;;;;;;6.70;69.90;;;;;;4920029;29;19895;-79
2022/02/13 15:28:14;;;;;;;;;;;6.60;70.30;;;;;;4919551;29;19911;-78
2022/02/13 15:30:40;;;;;;;;;;;6.50;71.10;;;;;;4919079;29;19919;-79
2022/02/13 15:33:06;;;;;;;;;;;6.40;71.90;;;;;;4918766;29;19912;-79
2022/02/13 15:35:32;;;;;;;;;;;6.40;72.90;;;;;;4913110;29;19975;-79
2022/02/13 15:37:58;;;;;;;;;;;6.30;73.50;;;;;;4897638;29;19949;-78
2022/02/13 15:40:24;;;;;;;;;;;6.20;74.40;;;;;;4919650;29;19908;-79
2022/02/13 15:42:49;;;;;;;;;;;6.10;75.30;;;;;;4920028;29;19895;-79
2022/02/13 15:45:16;;;;;;;;;;;6.00;75.80;;;;;;4936845;29;19899;-79
2022/02/13 15:47:41;;;;;;;;;;;5.90;76.90;;;;;;4923462;29;19902;-78
2022/02/13 15:50:08;;;;;;;;;;;5.90;77.50;;;;;;4924183;29;19915;-78
2022/02/13 15:52:34;;;;;;;;;;;5.80;78.10;;;;;;4923785;29;19902;-79
2022/02/13 15:54:59;;;;;;;;;;;5.80;78.90;;;;;;4924094;29;19907;-79
2022/02/13 15:57:25;;;;;;;;;;;5.80;79.30;;;;;;4922592;29;19896;-80
2022/02/13 15:59:52;;;;;;;;;;;5.70;80.30;;;;;;4923517;29;19959;-80
2022/02/13 16:02:24;;;;;;;;;;;5.60;81.00;;;;;;4923430;29;19904;-79
2022/02/13 16:04:51;;;;;;;;;;;5.50;81.90;;;;;;4923891;29;20000;-79
2022/02/13 16:07:17;;;;;;;;;;;5.40;83.30;;;;;;4939237;29;19895;-80
2022/02/13 16:09:45;;;;;;;;;;;5.20;84.10;;;;;;4923723;29;19896;-79
2022/02/13 16:12:11;;;;;;;;;;;5.20;86.00;;;;;;4923303;29;19895;-79
2022/02/13 16:14:37;;;;;;;;;;;5.20;87.00;;;;;;4923898;29;19895;-79
2022/02/13 16:17:03;;;;;;;;;;;5.10;87.50;;;;;;4939079;29;19954;-79
2022/02/13 16:19:29;;;;;;;;;;;5.20;88.50;;;;;;4922622;29;19931;-80
2022/02/13 16:21:55;;;;;;;;;;;5.10;89.00;;;;;;4923644;29;19927;-80
2022/02/13 16:24:20;;;;;;;;;;;5.20;89.40;;;;;;4922960;29;19927;-80
2022/02/13 16:26:47;;;;;;;;;;;5.20;89.50;;;;;;4923448;29;19896;-80
2022/02/13 16:29:13;;;;;;;;;;;5.20;89.60;;;;;;4921829;29;19958;-79
2022/02/13 16:31:39;;;;;;;;;;;5.20;89.50;;;;;;4921261;29;19904;-80
2022/02/13 16:34:05;;;;;;;;;;;5.30;89.00;;;;;;4923134;29;19982;-80
2022/02/13 16:36:31;;;;;;;;;;;5.30;88.10;;;;;;4923487;29;19954;-80
2022/02/13 17:04:14;;;;;;;;;;;5.30;90.30;;;;;;4952666;29;19965;-79
2022/02/13 17:06:39;;;;;;;;;;;5.30;91.00;;;;;;4951313;29;19915;-79
2022/02/13 17:09:06;;;;;;;;;;;5.30;91.00;;;;;;4958465;29;19914;-79
2022/02/13 17:11:31;;;;;;;;;;;5.20;90.90;;;;;;4946672;29;19897;-79
2022/02/13 17:13:57;;;;;;;;;;;5.30;91.00;;;;;;4948441;29;20170;-79
2022/02/13 17:16:23;;;;;;;;;;;5.30;91.10;;;;;;4964416;29;19919;-79
2022/02/13 17:18:49;;;;;;;;;;;5.20;90.80;;;;;;4948223;29;19895;-79
2022/02/13 17:21:15;;;;;;;;;;;5.30;91.00;;;;;;4946898;29;19937;-79
2022/02/13 17:23:45;;;;;;;;;;;5.20;91.10;;;;;;4942669;29;19914;-79
2022/02/13 17:26:12;;;;;;;;;;;5.30;91.10;;;;;;4943727;29;19954;-79
2022/02/13 17:28:38;;;;;;;;;;;5.20;91.30;;;;;;4949608;29;19907;-80
2022/02/13 17:31:04;;;;;;;;;;;5.20;91.50;;;;;;4940196;29;20418;-80
2022/02/13 17:33:31;;;;;;;;;;;5.20;91.50;;;;;;4944495;29;19938;-80
2022/02/13 17:48:53;;;;;;;;;;;4.90;92.70;;;;;;5455208;23;19907;-80
2022/02/13 17:51:21;;;;;;;;;;;4.90;92.70;;;;;;4960908;29;19962;-80
2022/02/13 17:53:47;;;;;;;;;;;4.80;92.70;;;;;;4961838;29;19917;-81
2022/02/13 17:56:13;;;;;;;;;;;4.90;92.60;;;;;;4946065;29;19895;-80
2022/02/13 17:58:38;;;;;;;;;;;4.90;92.50;;;;;;4943446;29;19895;-79
2022/02/13 18:01:04;;;;;;;;;;;4.90;92.50;;;;;;4947630;29;19895;-78
2022/02/13 18:03:29;;;;;;;;;;;4.80;92.70;;;;;;4947346;29;19942;-79
2022/02/13 18:05:55;;;;;;;;;;;4.90;92.80;;;;;;4964002;29;19902;-78
2022/02/13 18:08:21;;;;;;;;;;;4.90;92.80;;;;;;4945904;29;19911;-80
2022/02/13 18:10:47;;;;;;;;;;;4.80;93.50;;;;;;4958500;29;19918;-79
2022/02/13 18:13:12;;;;;;;;;;;4.80;93.30;;;;;;4936088;29;20311;-80
2022/02/13 18:15:39;;;;;;;;;;;4.90;93.60;;;;;;4941600;29;19899;-79
2022/02/13 18:18:05;;;;;;;;;;;4.80;93.90;;;;;;4963712;29;19962;-78
2022/02/13 18:20:32;;;;;;;;;;;4.80;94.10;;;;;;4947223;29;19894;-78
2022/02/13 18:22:59;;;;;;;;;;;4.80;94.40;;;;;;4947220;29;19926;-79
2022/02/13 18:25:24;;;;;;;;;;;4.80;94.20;;;;;;4963595;29;19915;-79
2022/02/13 18:27:50;;;;;;;;;;;4.70;94.40;;;;;;4947230;29;19902;-79
2022/02/13 18:30:18;;;;;;;;;;;4.80;94.60;;;;;;4946812;29;19895;-79
2022/02/13 18:32:46;;;;;;;;;;;4.70;94.70;;;;;;4963179;29;19919;-80
